createdAt,value
2022-11-20T00:00:22.831Z,933.60
2022-11-20T00:01:22.806Z,933.64
2022-11-20T00:02:22.914Z,933.60
2022-11-20T00:03:22.782Z,933.64
2022-11-20T00:04:22.795Z,933.55
2022-11-20T00:05:22.754Z,933.56
2022-11-20T00:06:22.754Z,933.60
2022-11-20T00:07:22.802Z,933.60
2022-11-20T00:08:22.765Z,933.61
2022-11-20T00:09:23.099Z,933.59
2022-11-20T00:10:22.738Z,933.58
2022-11-20T00:11:22.779Z,933.58
2022-11-20T00:12:22.677Z,933.64
2022-11-20T00:13:22.691Z,933.61
2022-11-20T00:14:22.705Z,933.63
2022-11-20T00:15:22.652Z,933.66
2022-11-20T00:16:22.706Z,933.62
2022-11-20T00:17:22.723Z,933.63
2022-11-20T00:18:22.660Z,933.63
2022-11-20T00:19:23.105Z,933.63
2022-11-20T00:20:22.625Z,933.61
2022-11-20T00:21:22.600Z,933.60
2022-11-20T00:22:22.603Z,933.60
2022-11-20T00:23:22.619Z,933.61
2022-11-20T00:24:22.644Z,933.64
2022-11-20T00:25:22.598Z,933.64
2022-11-20T00:26:22.558Z,933.62
2022-11-20T00:27:22.558Z,933.63
2022-11-20T00:28:22.576Z,933.62
2022-11-20T00:29:22.796Z,933.68
2022-11-20T00:30:22.494Z,933.65
2022-11-20T00:31:22.495Z,933.70
2022-11-20T00:32:22.489Z,933.70
2022-11-20T00:33:22.484Z,933.71
2022-11-20T00:34:22.481Z,933.75
2022-11-20T00:35:22.454Z,933.74
2022-11-20T00:36:22.449Z,933.72
2022-11-20T00:37:22.463Z,933.76
2022-11-20T00:38:22.403Z,933.73
2022-11-20T00:39:22.807Z,933.73
2022-11-20T00:40:22.419Z,933.79
2022-11-20T00:41:22.421Z,933.75
2022-11-20T00:42:22.417Z,933.76
2022-11-20T00:43:22.360Z,933.70
2022-11-20T00:44:22.367Z,933.74
2022-11-20T00:45:22.392Z,933.72
2022-11-20T00:46:22.374Z,933.73
2022-11-20T00:47:22.317Z,933.68
2022-11-20T00:48:22.306Z,933.70
2022-11-20T00:49:22.691Z,933.74
2022-11-20T00:50:22.317Z,933.77
2022-11-20T00:51:22.327Z,933.80
2022-11-20T00:52:22.281Z,933.79
2022-11-20T00:53:22.292Z,933.79
2022-11-20T00:54:22.244Z,933.86
2022-11-20T00:55:22.253Z,933.83
2022-11-20T00:56:22.219Z,933.80
2022-11-20T00:57:22.238Z,933.84
2022-11-20T00:58:22.226Z,933.88
2022-11-20T00:59:22.558Z,933.87
2022-11-20T01:00:22.184Z,933.85
2022-11-20T01:01:22.222Z,933.86
2022-11-20T01:02:22.158Z,933.86
2022-11-20T01:03:26.804Z,933.88
2022-11-20T01:04:23.960Z,933.89
2022-11-20T01:05:22.152Z,933.87
2022-11-20T01:06:22.122Z,933.95
2022-11-20T01:07:22.201Z,933.88
2022-11-20T01:08:22.110Z,933.91
2022-11-20T01:09:22.389Z,933.92
2022-11-20T01:10:22.101Z,933.98
2022-11-20T01:11:22.083Z,933.96
2022-11-20T01:12:22.059Z,933.93
2022-11-20T01:13:25.674Z,933.90
2022-11-20T01:14:22.092Z,933.96
2022-11-20T01:15:22.072Z,933.96
2022-11-20T01:16:22.041Z,933.95
2022-11-20T01:17:26.946Z,933.95
2022-11-20T01:18:21.991Z,934.01
2022-11-20T01:19:22.369Z,933.96
2022-11-20T01:20:21.971Z,934.03
2022-11-20T01:21:22.947Z,934.00
2022-11-20T01:22:21.991Z,934.01
2022-11-20T01:23:22.446Z,934.02
2022-11-20T01:24:21.932Z,934.02
2022-11-20T01:25:22.000Z,933.99
2022-11-20T01:26:21.910Z,934.03
2022-11-20T01:27:22.439Z,934.05
2022-11-20T01:28:21.921Z,934.02
2022-11-20T01:29:22.271Z,934.05
2022-11-20T01:30:21.865Z,934.03
2022-11-20T01:31:21.971Z,934.02
2022-11-20T01:32:21.905Z,934.01
2022-11-20T01:33:21.838Z,934.05
2022-11-20T01:34:22.448Z,934.05
2022-11-20T01:35:21.804Z,934.07
2022-11-20T01:36:21.820Z,934.12
2022-11-20T01:37:21.857Z,934.09
2022-11-20T01:38:21.783Z,934.11
2022-11-20T01:39:22.097Z,934.09
2022-11-20T01:40:21.773Z,934.09
2022-11-20T01:41:21.862Z,934.08
2022-11-20T01:42:21.755Z,934.12
2022-11-20T01:43:21.807Z,934.13
2022-11-20T01:44:21.740Z,934.12
2022-11-20T01:45:21.718Z,934.14
2022-11-20T01:46:21.695Z,934.17
2022-11-20T01:47:21.736Z,934.15
2022-11-20T01:48:21.711Z,934.16
2022-11-20T01:49:21.917Z,934.15
2022-11-20T01:50:21.655Z,934.18
2022-11-20T01:51:21.713Z,934.18
2022-11-20T01:52:21.738Z,934.21
2022-11-20T01:53:21.633Z,934.18
2022-11-20T01:54:21.655Z,934.25
2022-11-20T01:55:21.603Z,934.21
2022-11-20T01:56:21.604Z,934.16
2022-11-20T01:57:21.607Z,934.20
2022-11-20T01:58:21.590Z,934.17
2022-11-20T01:59:21.873Z,934.20
2022-11-20T02:00:21.713Z,934.24
2022-11-20T02:01:21.581Z,934.23
2022-11-20T02:02:21.527Z,934.26
2022-11-20T02:03:21.540Z,934.21
2022-11-20T02:04:21.559Z,934.23
2022-11-20T02:05:21.529Z,934.20
2022-11-20T02:06:21.490Z,934.17
2022-11-20T02:07:22.104Z,934.19
2022-11-20T02:08:21.531Z,934.18
2022-11-20T02:09:21.765Z,934.19
2022-11-20T02:10:21.451Z,934.21
2022-11-20T02:11:21.441Z,934.19
2022-11-20T02:12:21.429Z,934.14
2022-11-20T02:13:21.502Z,934.19
2022-11-20T02:14:21.424Z,934.14
2022-11-20T02:15:23.229Z,934.19
2022-11-20T02:16:21.387Z,934.18
2022-11-20T02:17:26.002Z,934.17
2022-11-20T02:18:21.358Z,934.14
2022-11-20T02:19:21.685Z,934.18
2022-11-20T02:20:21.330Z,934.12
2022-11-20T02:21:28.864Z,934.15
2022-11-20T02:22:21.327Z,934.18
2022-11-20T02:23:21.334Z,934.15
2022-11-20T02:24:21.337Z,934.16
2022-11-20T02:25:21.280Z,934.17
2022-11-20T02:26:21.318Z,934.16
2022-11-20T02:27:21.283Z,934.13
2022-11-20T02:28:21.499Z,934.12
2022-11-20T02:29:22.225Z,934.12
2022-11-20T02:30:21.232Z,934.12
2022-11-20T02:31:21.304Z,934.13
2022-11-20T02:32:21.268Z,934.15
2022-11-20T02:33:21.250Z,934.14
2022-11-20T02:34:21.278Z,934.05
2022-11-20T02:35:21.316Z,934.02
2022-11-20T02:36:21.181Z,934.05
2022-11-20T02:37:21.177Z,934.06
2022-11-20T02:38:21.155Z,934.01
2022-11-20T02:39:21.573Z,934.02
2022-11-20T02:40:21.176Z,933.99
2022-11-20T02:41:21.154Z,933.99
2022-11-20T02:42:21.139Z,934.00
2022-11-20T02:43:21.088Z,933.96
2022-11-20T02:44:21.087Z,933.90
2022-11-20T02:45:21.071Z,933.93
2022-11-20T02:46:21.081Z,933.95
2022-11-20T02:47:26.055Z,933.93
2022-11-20T02:48:21.087Z,933.93
2022-11-20T02:49:21.502Z,933.97
2022-11-20T02:50:21.028Z,933.98
2022-11-20T02:51:21.008Z,934.05
2022-11-20T02:52:21.277Z,933.97
2022-11-20T02:53:21.057Z,934.00
2022-11-20T02:54:21.025Z,933.96
2022-11-20T02:55:21.014Z,933.98
2022-11-20T02:56:20.971Z,933.98
2022-11-20T02:57:20.942Z,933.96
2022-11-20T02:58:20.936Z,933.96
2022-11-20T02:59:21.233Z,933.95
2022-11-20T03:00:20.942Z,933.92
2022-11-20T03:01:20.968Z,933.96
2022-11-20T03:02:20.919Z,933.95
2022-11-20T03:03:20.888Z,933.96
2022-11-20T03:04:20.886Z,933.93
2022-11-20T03:05:20.961Z,933.96
2022-11-20T03:06:20.861Z,933.96
2022-11-20T03:07:20.918Z,933.93
2022-11-20T03:08:20.867Z,933.95
2022-11-20T03:09:21.220Z,933.92
2022-11-20T03:10:20.807Z,933.99
2022-11-20T03:11:20.851Z,933.93
2022-11-20T03:12:20.833Z,933.91
2022-11-20T03:13:20.949Z,933.94
2022-11-20T03:14:20.764Z,933.85
2022-11-20T03:15:20.751Z,933.88
2022-11-20T03:16:20.753Z,933.90
2022-11-20T03:17:20.785Z,933.87
2022-11-20T03:18:20.728Z,933.88
2022-11-20T03:19:21.098Z,933.91
2022-11-20T03:20:20.750Z,933.85
2022-11-20T03:21:20.707Z,933.89
2022-11-20T03:22:20.703Z,933.84
2022-11-20T03:23:20.697Z,933.85
2022-11-20T03:24:20.717Z,933.83
2022-11-20T03:25:20.709Z,933.89
2022-11-20T03:26:20.644Z,933.89
2022-11-20T03:27:20.628Z,933.84
2022-11-20T03:28:20.687Z,933.80
2022-11-20T03:29:20.944Z,933.83
2022-11-20T03:30:20.611Z,933.81
2022-11-20T03:31:20.609Z,933.81
2022-11-20T03:32:20.598Z,933.82
2022-11-20T03:33:20.570Z,933.84
2022-11-20T03:34:20.562Z,933.88
2022-11-20T03:35:20.543Z,933.89
2022-11-20T03:36:20.567Z,933.84
2022-11-20T03:37:20.548Z,933.85
2022-11-20T03:38:20.520Z,933.86
2022-11-20T03:39:20.792Z,933.82
2022-11-20T03:40:20.515Z,933.87
2022-11-20T03:41:20.546Z,933.86
2022-11-20T03:42:20.467Z,933.86
2022-11-20T03:43:20.464Z,933.86
2022-11-20T03:44:20.472Z,933.86
2022-11-20T03:45:20.490Z,933.87
2022-11-20T03:46:20.447Z,933.87
2022-11-20T03:47:25.015Z,933.88
2022-11-20T03:48:20.480Z,933.88
2022-11-20T03:49:20.685Z,933.92
2022-11-20T03:50:20.388Z,933.96
2022-11-20T03:51:20.373Z,933.93
2022-11-20T03:52:20.393Z,933.98
2022-11-20T03:53:20.514Z,933.96
2022-11-20T03:54:20.370Z,934.01
2022-11-20T03:55:20.405Z,934.00
2022-11-20T03:56:20.324Z,933.95
2022-11-20T03:57:20.318Z,934.03
2022-11-20T03:58:20.326Z,934.05
2022-11-20T03:59:20.680Z,934.03
2022-11-20T04:00:20.497Z,934.05
2022-11-20T04:01:20.336Z,934.08
2022-11-20T04:02:20.300Z,934.09
2022-11-20T04:03:20.270Z,934.01
2022-11-20T04:04:20.251Z,934.09
2022-11-20T04:05:20.252Z,934.06
2022-11-20T04:06:20.248Z,934.02
2022-11-20T04:07:20.309Z,933.98
2022-11-20T04:08:20.197Z,934.03
2022-11-20T04:09:20.520Z,934.03
2022-11-20T04:10:20.188Z,934.02
2022-11-20T04:11:20.163Z,934.02
2022-11-20T04:12:20.152Z,934.03
2022-11-20T04:13:20.143Z,934.04
2022-11-20T04:14:20.152Z,934.05
2022-11-20T04:15:20.124Z,934.02
2022-11-20T04:16:20.130Z,934.08
2022-11-20T04:17:20.135Z,934.06
2022-11-20T04:18:20.109Z,934.14
2022-11-20T04:19:20.591Z,934.08
2022-11-20T04:20:20.077Z,934.04
2022-11-20T04:21:20.063Z,934.03
2022-11-20T04:22:20.052Z,934.03
2022-11-20T04:23:22.382Z,934.01
2022-11-20T04:24:21.523Z,934.02
2022-11-20T04:25:20.063Z,933.91
2022-11-20T04:26:20.023Z,934.04
2022-11-20T04:27:20.060Z,933.98
2022-11-20T04:28:19.989Z,934.02
2022-11-20T04:29:20.281Z,934.04
2022-11-20T04:30:19.966Z,934.04
2022-11-20T04:31:19.953Z,933.99
2022-11-20T04:32:19.974Z,934.04
2022-11-20T04:33:19.958Z,934.03
2022-11-20T04:34:19.962Z,934.05
2022-11-20T04:35:19.959Z,934.04
2022-11-20T04:36:19.915Z,934.04
2022-11-20T04:37:19.894Z,934.08
2022-11-20T04:38:19.937Z,934.05
2022-11-20T04:39:20.360Z,934.06
2022-11-20T04:40:19.863Z,934.06
2022-11-20T04:41:19.914Z,934.06
2022-11-20T04:42:19.893Z,934.05
2022-11-20T04:43:19.846Z,934.02
2022-11-20T04:44:19.813Z,934.05
2022-11-20T04:45:19.814Z,934.07
2022-11-20T04:46:19.834Z,934.03
2022-11-20T04:47:19.799Z,934.00
2022-11-20T04:48:19.820Z,934.09
2022-11-20T04:49:20.275Z,934.04
2022-11-20T04:50:19.756Z,934.03
2022-11-20T04:51:19.808Z,934.03
2022-11-20T04:52:19.772Z,934.03
2022-11-20T04:53:19.779Z,934.02
2022-11-20T04:54:19.758Z,934.07
2022-11-20T04:55:19.724Z,934.08
2022-11-20T04:56:19.760Z,934.06
2022-11-20T04:57:19.683Z,934.04
2022-11-20T04:58:19.725Z,934.15
2022-11-20T04:59:20.029Z,934.07
2022-11-20T05:00:19.659Z,934.06
2022-11-20T05:01:19.691Z,934.10
2022-11-20T05:02:19.670Z,934.06
2022-11-20T05:03:19.623Z,934.09
2022-11-20T05:04:19.620Z,934.09
2022-11-20T05:05:19.594Z,934.10
2022-11-20T05:06:19.585Z,934.09
2022-11-20T05:07:19.699Z,934.09
2022-11-20T05:08:19.631Z,934.08
2022-11-20T05:09:19.909Z,934.03
2022-11-20T05:10:19.568Z,934.03
2022-11-20T05:11:19.539Z,934.03
2022-11-20T05:12:19.526Z,934.05
2022-11-20T05:13:19.997Z,934.01
2022-11-20T05:14:19.599Z,934.05
2022-11-20T05:15:19.496Z,934.10
2022-11-20T05:16:19.478Z,934.08
2022-11-20T05:17:19.503Z,934.03
2022-11-20T05:18:19.461Z,934.06
2022-11-20T05:19:19.913Z,934.10
2022-11-20T05:20:19.495Z,934.12
2022-11-20T05:21:19.430Z,934.11
2022-11-20T05:22:19.422Z,934.15
2022-11-20T05:23:19.408Z,934.17
2022-11-20T05:24:19.394Z,934.16
2022-11-20T05:25:19.417Z,934.17
2022-11-20T05:26:19.460Z,934.14
2022-11-20T05:27:19.392Z,934.12
2022-11-20T05:28:19.406Z,934.10
2022-11-20T05:29:19.632Z,934.12
2022-11-20T05:30:19.354Z,934.17
2022-11-20T05:31:25.062Z,934.13
2022-11-20T05:32:20.327Z,934.13
2022-11-20T05:33:19.307Z,934.15
2022-11-20T05:34:19.319Z,934.18
2022-11-20T05:35:19.275Z,934.20
2022-11-20T05:36:19.268Z,934.15
2022-11-20T05:37:19.259Z,934.19
2022-11-20T05:38:19.249Z,934.18
2022-11-20T05:39:19.838Z,934.22
2022-11-20T05:40:19.243Z,934.16
2022-11-20T05:41:19.220Z,934.17
2022-11-20T05:42:19.231Z,934.16
2022-11-20T05:43:19.208Z,934.06
2022-11-20T05:44:19.199Z,934.18
2022-11-20T05:45:19.228Z,934.17
2022-11-20T05:46:21.260Z,934.14
2022-11-20T05:47:20.181Z,934.18
2022-11-20T05:48:19.165Z,934.19
2022-11-20T05:49:19.286Z,934.26
2022-11-20T05:50:19.200Z,934.23
2022-11-20T05:51:19.183Z,934.30
2022-11-20T05:52:19.119Z,934.29
2022-11-20T05:53:19.208Z,934.19
2022-11-20T05:54:19.104Z,934.23
2022-11-20T05:55:19.099Z,934.17
2022-11-20T05:56:19.078Z,934.22
2022-11-20T05:57:19.061Z,934.17
2022-11-20T05:58:19.036Z,934.12
2022-11-20T05:59:19.943Z,934.18
2022-11-20T06:00:19.032Z,934.18
2022-11-20T06:01:19.016Z,934.16
2022-11-20T06:02:19.093Z,934.15
2022-11-20T06:03:18.994Z,934.16
2022-11-20T06:04:19.047Z,934.22
2022-11-20T06:05:19.023Z,934.22
2022-11-20T06:06:18.985Z,934.22
2022-11-20T06:07:19.067Z,934.21
2022-11-20T06:08:18.971Z,934.22
2022-11-20T06:09:19.317Z,934.23
2022-11-20T06:10:18.921Z,934.17
2022-11-20T06:11:18.946Z,934.19
2022-11-20T06:12:18.936Z,934.21
2022-11-20T06:13:19.500Z,934.22
2022-11-20T06:14:18.890Z,934.18
2022-11-20T06:15:18.946Z,934.19
2022-11-20T06:16:18.859Z,934.25
2022-11-20T06:17:23.540Z,934.24
2022-11-20T06:18:18.855Z,934.29
2022-11-20T06:19:19.029Z,934.30
2022-11-20T06:20:18.830Z,934.31
2022-11-20T06:21:18.801Z,934.32
2022-11-20T06:22:18.789Z,934.32
2022-11-20T06:23:18.816Z,934.33
2022-11-20T06:24:18.800Z,934.29
2022-11-20T06:25:23.060Z,934.28
2022-11-20T06:26:18.814Z,934.32
2022-11-20T06:27:18.742Z,934.30
2022-11-20T06:28:18.778Z,934.35
2022-11-20T06:29:18.925Z,934.26
2022-11-20T06:30:18.701Z,934.35
2022-11-20T06:31:18.698Z,934.32
2022-11-20T06:32:18.776Z,934.31
2022-11-20T06:33:18.684Z,934.32
2022-11-20T06:34:18.669Z,934.32
2022-11-20T06:35:18.711Z,934.29
2022-11-20T06:36:18.675Z,934.33
2022-11-20T06:37:18.628Z,934.33
2022-11-20T06:38:18.660Z,934.35
2022-11-20T06:39:18.804Z,934.35
2022-11-20T06:40:18.611Z,934.37
2022-11-20T06:41:18.626Z,934.40
2022-11-20T06:42:18.593Z,934.39
2022-11-20T06:43:18.594Z,934.39
2022-11-20T06:44:18.558Z,934.42
2022-11-20T06:45:18.548Z,934.38
2022-11-20T06:46:18.598Z,934.39
2022-11-20T06:47:23.542Z,934.45
2022-11-20T06:48:18.518Z,934.44
2022-11-20T06:49:18.583Z,934.46
2022-11-20T06:50:18.528Z,934.41
2022-11-20T06:51:18.565Z,934.48
2022-11-20T06:52:18.469Z,934.49
2022-11-20T06:53:18.472Z,934.47
2022-11-20T06:54:18.474Z,934.51
2022-11-20T06:55:18.451Z,934.53
2022-11-20T06:56:18.457Z,934.53
2022-11-20T06:57:18.427Z,934.52
2022-11-20T06:58:18.438Z,934.55
2022-11-20T06:59:18.439Z,934.48
2022-11-20T07:00:18.393Z,934.58
2022-11-20T07:01:18.418Z,934.58
2022-11-20T07:02:18.363Z,934.58
2022-11-20T07:03:18.368Z,934.61
2022-11-20T07:04:18.440Z,934.59
2022-11-20T07:05:18.417Z,934.59
2022-11-20T07:06:18.336Z,934.63
2022-11-20T07:07:18.396Z,934.58
2022-11-20T07:08:18.314Z,934.57
2022-11-20T07:09:18.298Z,934.58
2022-11-20T07:10:18.302Z,934.61
2022-11-20T07:11:18.324Z,934.60
2022-11-20T07:12:18.269Z,934.57
2022-11-20T07:13:18.270Z,934.60
2022-11-20T07:14:18.254Z,934.57
2022-11-20T07:15:18.231Z,934.52
2022-11-20T07:16:18.234Z,934.53
2022-11-20T07:17:23.038Z,934.59
2022-11-20T07:18:18.193Z,934.55
2022-11-20T07:19:18.329Z,934.57
2022-11-20T07:20:18.175Z,934.59
2022-11-20T07:21:18.169Z,934.59
2022-11-20T07:23:32.231Z,934.56
2022-11-20T07:24:31.747Z,934.56
2022-11-20T07:25:31.741Z,934.63
2022-11-20T07:26:31.723Z,934.62
2022-11-20T07:27:31.730Z,934.63
2022-11-20T07:28:31.717Z,934.60
2022-11-20T07:29:31.682Z,934.68
2022-11-20T07:30:31.699Z,934.63
2022-11-20T07:31:31.741Z,934.67
2022-11-20T07:32:31.643Z,934.70
2022-11-20T07:33:31.637Z,934.67
2022-11-20T07:34:31.639Z,934.71
2022-11-20T07:35:31.620Z,934.72
2022-11-20T07:36:31.604Z,934.72
2022-11-20T07:37:31.632Z,934.76
2022-11-20T07:38:31.621Z,934.76
2022-11-20T07:39:31.593Z,934.72
2022-11-20T07:40:31.554Z,934.80
2022-11-20T07:41:31.575Z,934.74
2022-11-20T07:42:31.569Z,934.74
2022-11-20T07:43:31.543Z,934.70
2022-11-20T07:44:31.524Z,934.73
2022-11-20T07:45:31.518Z,934.69
2022-11-20T07:46:32.189Z,934.72
2022-11-20T07:47:31.532Z,934.65
2022-11-20T07:48:31.481Z,934.68
2022-11-20T07:49:31.509Z,934.77
2022-11-20T07:50:31.451Z,934.72
2022-11-20T07:51:31.453Z,934.70
2022-11-20T07:52:31.451Z,934.73
2022-11-20T07:53:31.453Z,934.69
2022-11-20T07:54:31.413Z,934.71
2022-11-20T07:55:31.441Z,934.70
2022-11-20T07:56:31.452Z,934.74
2022-11-20T07:57:31.475Z,934.68
2022-11-20T07:58:31.386Z,934.66
2022-11-20T07:59:31.381Z,934.67
2022-11-20T08:00:31.464Z,934.72
2022-11-20T08:01:31.351Z,934.70
2022-11-20T08:02:31.377Z,934.75
2022-11-20T08:03:31.329Z,934.66
2022-11-20T08:04:31.324Z,934.74
2022-11-20T08:05:31.307Z,934.74
2022-11-20T08:06:31.291Z,934.69
2022-11-20T08:07:31.457Z,934.64
2022-11-20T08:08:33.811Z,934.72
2022-11-20T08:09:31.310Z,934.68
2022-11-20T08:10:31.248Z,934.64
2022-11-20T08:11:31.253Z,934.70
2022-11-20T08:12:31.232Z,934.67
2022-11-20T08:13:31.231Z,934.71
2022-11-20T08:14:31.261Z,934.67
2022-11-20T08:15:31.201Z,934.70
2022-11-20T08:16:31.188Z,934.70
2022-11-20T08:17:31.184Z,934.73
2022-11-20T08:18:32.669Z,934.64
2022-11-20T08:19:31.161Z,934.69
2022-11-20T08:20:31.163Z,934.69
2022-11-20T08:21:36.707Z,934.64
2022-11-20T08:22:32.133Z,934.64
2022-11-20T08:23:31.127Z,934.59
2022-11-20T08:24:31.160Z,934.68
2022-11-20T08:25:31.094Z,934.67
2022-11-20T08:26:31.079Z,934.69
2022-11-20T08:27:31.078Z,934.64
2022-11-20T08:28:31.084Z,934.71
2022-11-20T08:29:31.140Z,934.74
2022-11-20T08:30:31.039Z,934.78
2022-11-20T08:31:31.044Z,934.71
2022-11-20T08:32:31.028Z,934.76
2022-11-20T08:33:31.059Z,934.77
2022-11-20T08:34:31.055Z,934.72
2022-11-20T08:35:31.022Z,934.72
2022-11-20T08:36:31.006Z,934.69
2022-11-20T08:37:30.979Z,934.68
2022-11-20T08:38:31.000Z,934.67
2022-11-20T08:39:30.954Z,934.57
2022-11-20T08:40:30.935Z,934.48
2022-11-20T08:41:30.931Z,934.53
2022-11-20T08:42:30.938Z,934.65
2022-11-20T08:43:30.937Z,934.64
2022-11-20T08:44:30.895Z,934.68
2022-11-20T08:45:34.192Z,934.66
2022-11-20T08:46:30.896Z,934.64
2022-11-20T08:47:35.795Z,934.63
2022-11-20T08:48:30.867Z,934.67
2022-11-20T08:49:30.858Z,934.70
2022-11-20T08:50:30.856Z,934.70
2022-11-20T08:51:30.890Z,934.51
2022-11-20T08:52:32.554Z,934.52
2022-11-20T08:53:30.847Z,934.61
2022-11-20T08:54:30.797Z,934.56
2022-11-20T08:55:31.721Z,934.57
2022-11-20T08:56:30.821Z,934.56
2022-11-20T08:57:30.755Z,934.56
2022-11-20T08:58:31.192Z,934.62
2022-11-20T09:00:03.884Z,934.54
2022-11-20T09:00:31.750Z,934.61
2022-11-20T09:01:30.868Z,934.55
2022-11-20T09:02:30.720Z,934.45
2022-11-20T09:03:33.004Z,934.68
2022-11-20T09:04:30.721Z,934.52
2022-11-20T09:05:31.258Z,934.43
2022-11-20T09:06:30.677Z,934.63
2022-11-20T09:07:30.735Z,934.46
2022-11-20T09:08:30.650Z,934.51
2022-11-20T09:09:30.649Z,934.42
2022-11-20T09:10:30.631Z,934.45
2022-11-20T09:11:30.618Z,934.33
2022-11-20T09:12:30.664Z,934.38
2022-11-20T09:13:30.602Z,934.13
2022-11-20T09:14:30.579Z,934.31
2022-11-20T09:15:30.581Z,934.34
2022-11-20T09:16:30.552Z,934.35
2022-11-20T09:17:30.586Z,934.30
2022-11-20T09:18:30.533Z,934.05
2022-11-20T09:19:37.754Z,934.21
2022-11-20T09:20:31.542Z,934.16
2022-11-20T09:21:30.547Z,934.21
2022-11-20T09:22:30.528Z,934.15
2022-11-20T09:23:30.491Z,934.16
2022-11-20T09:24:30.543Z,934.14
2022-11-20T09:25:30.463Z,934.13
2022-11-20T09:26:30.452Z,934.12
2022-11-20T09:27:30.452Z,934.08
2022-11-20T09:28:30.441Z,934.06
2022-11-20T09:29:30.460Z,934.06
2022-11-20T09:30:30.752Z,933.98
2022-11-20T09:31:30.438Z,933.89
2022-11-20T09:32:30.454Z,933.94
2022-11-20T09:33:30.426Z,934.02
2022-11-20T09:34:30.367Z,933.94
2022-11-20T09:35:30.368Z,933.96
2022-11-20T09:36:30.349Z,933.85
2022-11-20T09:37:30.372Z,933.89
2022-11-20T09:38:30.390Z,933.85
2022-11-20T09:39:30.324Z,933.81
2022-11-20T09:40:30.374Z,933.68
2022-11-20T09:41:30.369Z,933.59
2022-11-20T09:42:30.294Z,933.62
2022-11-20T09:43:33.773Z,933.52
2022-11-20T09:44:31.273Z,933.53
2022-11-20T09:45:30.255Z,933.66
2022-11-20T09:46:30.319Z,933.59
2022-11-20T09:47:30.264Z,933.72
2022-11-20T09:48:30.266Z,933.69
2022-11-20T09:49:32.660Z,933.85
2022-11-20T09:50:30.214Z,933.74
2022-11-20T09:51:30.196Z,933.76
2022-11-20T09:52:30.270Z,933.77
2022-11-20T09:53:30.264Z,933.72
2022-11-20T09:54:30.195Z,933.56
2022-11-20T09:55:30.275Z,933.65
2022-11-20T09:56:30.134Z,933.60
2022-11-20T09:57:30.134Z,933.65
2022-11-20T09:58:30.735Z,933.55
2022-11-20T09:59:30.108Z,933.61
2022-11-20T10:00:30.131Z,933.58
2022-11-20T10:01:30.154Z,933.48
2022-11-20T10:02:30.082Z,933.30
2022-11-20T10:03:30.073Z,933.53
2022-11-20T10:04:30.054Z,933.57
2022-11-20T10:05:30.062Z,933.58
2022-11-20T10:06:30.064Z,933.56
2022-11-20T10:07:32.702Z,933.61
2022-11-20T10:08:30.024Z,933.21
2022-11-20T10:09:30.026Z,933.57
2022-11-20T10:10:29.980Z,933.41
2022-11-20T10:11:30.740Z,933.19
2022-11-20T10:12:29.985Z,933.26
2022-11-20T10:13:30.007Z,933.19
2022-11-20T10:14:29.950Z,933.44
2022-11-20T10:15:30.745Z,933.28
2022-11-20T10:16:29.962Z,933.50
2022-11-20T10:17:29.996Z,933.22
2022-11-20T10:18:29.929Z,933.25
2022-11-20T10:19:29.925Z,933.42
2022-11-20T10:20:29.882Z,933.29
2022-11-20T10:21:29.875Z,933.35
2022-11-20T10:22:29.906Z,933.44
2022-11-20T10:23:29.855Z,933.44
2022-11-20T10:24:29.899Z,933.47
2022-11-20T10:25:29.886Z,933.41
2022-11-20T10:26:29.826Z,933.42
2022-11-20T10:27:29.803Z,933.49
2022-11-20T10:28:29.805Z,933.56
2022-11-20T10:29:29.792Z,933.45
2022-11-20T10:30:29.886Z,933.48
2022-11-20T10:31:29.801Z,933.60
2022-11-20T10:32:29.753Z,933.61
2022-11-20T10:33:50.123Z,933.58
2022-11-20T10:34:30.738Z,933.91
2022-11-20T10:35:29.775Z,933.43
2022-11-20T10:36:29.724Z,933.45
2022-11-20T10:37:29.744Z,933.70
2022-11-20T10:38:29.725Z,933.64
2022-11-20T10:39:29.690Z,933.60
2022-11-20T10:40:29.684Z,933.36
2022-11-20T10:41:31.920Z,933.66
2022-11-20T10:42:29.712Z,933.32
2022-11-20T10:43:29.657Z,933.59
2022-11-20T10:44:29.722Z,933.68
2022-11-20T10:45:29.637Z,933.42
2022-11-20T10:46:29.653Z,933.67
2022-11-20T10:47:34.266Z,933.37
2022-11-20T10:48:29.741Z,933.37
2022-11-20T10:49:29.636Z,933.20
2022-11-20T10:50:29.681Z,933.44
2022-11-20T10:51:29.626Z,933.69
2022-11-20T10:52:29.604Z,933.41
2022-11-20T10:53:29.586Z,933.41
2022-11-20T10:54:29.726Z,933.47
2022-11-20T10:55:29.558Z,933.50
2022-11-20T10:56:29.575Z,933.58
2022-11-20T10:57:29.553Z,933.72
2022-11-20T10:58:29.499Z,933.64
2022-11-20T10:59:29.480Z,933.48
2022-11-20T11:00:29.563Z,933.51
2022-11-20T11:01:29.510Z,933.43
2022-11-20T11:02:29.532Z,933.51
2022-11-20T11:03:29.444Z,933.52
2022-11-20T11:04:29.534Z,933.72
2022-11-20T11:05:29.403Z,933.35
2022-11-20T11:06:29.436Z,933.37
2022-11-20T11:07:29.429Z,933.53
2022-11-20T11:08:29.400Z,933.56
2022-11-20T11:09:29.369Z,933.51
2022-11-20T11:10:29.396Z,933.49
2022-11-20T11:11:29.364Z,933.50
2022-11-20T11:12:29.355Z,933.52
2022-11-20T11:13:29.341Z,933.77
2022-11-20T11:14:29.342Z,933.44
2022-11-20T11:15:29.314Z,933.43
2022-11-20T11:16:29.339Z,933.45
2022-11-20T11:17:29.290Z,933.51
2022-11-20T11:18:29.282Z,933.43
2022-11-20T11:19:29.293Z,933.37
2022-11-20T11:20:29.247Z,933.43
2022-11-20T11:21:29.236Z,933.37
2022-11-20T11:22:29.248Z,933.37
2022-11-20T11:23:29.247Z,933.41
2022-11-20T11:24:43.486Z,933.50
2022-11-20T11:25:30.192Z,933.45
2022-11-20T11:26:29.231Z,933.37
2022-11-20T11:27:29.174Z,933.36
2022-11-20T11:28:29.215Z,933.44
2022-11-20T11:29:29.176Z,933.33
2022-11-20T11:30:29.158Z,933.36
2022-11-20T11:31:29.177Z,933.39
2022-11-20T11:32:29.169Z,933.41
2022-11-20T11:33:29.104Z,933.28
2022-11-20T11:34:29.120Z,933.32
2022-11-20T11:35:29.085Z,933.36
2022-11-20T11:36:29.108Z,933.35
2022-11-20T11:37:29.094Z,933.40
2022-11-20T11:38:29.069Z,933.13
2022-11-20T11:39:29.050Z,933.32
2022-11-20T11:40:29.032Z,933.25
2022-11-20T11:41:29.045Z,933.27
2022-11-20T11:42:29.029Z,933.24
2022-11-20T11:43:30.963Z,933.14
2022-11-20T11:44:29.005Z,933.19
2022-11-20T11:45:28.979Z,933.12
2022-11-20T11:46:29.028Z,933.28
2022-11-20T11:47:28.971Z,933.17
2022-11-20T11:48:28.982Z,933.20
2022-11-20T11:49:28.953Z,933.17
2022-11-20T11:50:28.963Z,933.16
2022-11-20T11:51:28.913Z,933.23
2022-11-20T11:52:28.900Z,933.21
2022-11-20T11:53:28.987Z,933.23
2022-11-20T11:54:28.949Z,933.31
2022-11-20T11:55:28.917Z,933.27
2022-11-20T11:56:28.884Z,933.27
2022-11-20T11:57:28.850Z,933.30
2022-11-20T11:58:28.855Z,933.24
2022-11-20T11:59:28.864Z,933.38
2022-11-20T12:00:28.866Z,933.34
2022-11-20T12:01:28.890Z,933.38
2022-11-20T12:02:28.864Z,933.35
2022-11-20T12:03:28.899Z,933.28
2022-11-20T12:04:28.812Z,933.32
2022-11-20T12:05:28.855Z,933.39
2022-11-20T12:06:28.765Z,933.23
2022-11-20T12:07:45.950Z,933.31
2022-11-20T12:08:29.824Z,933.39
2022-11-20T12:09:28.728Z,933.27
2022-11-20T12:10:28.725Z,933.29
2022-11-20T12:11:28.718Z,933.33
2022-11-20T12:12:28.783Z,933.32
2022-11-20T12:13:28.728Z,933.28
2022-11-20T12:14:28.685Z,933.22
2022-11-20T12:15:28.661Z,933.14
2022-11-20T12:16:28.665Z,933.19
2022-11-20T12:17:33.318Z,933.18
2022-11-20T12:18:28.722Z,933.11
2022-11-20T12:19:28.637Z,933.17
2022-11-20T12:20:28.609Z,933.10
2022-11-20T12:21:28.598Z,933.23
2022-11-20T12:22:28.586Z,933.17
2022-11-20T12:23:28.664Z,933.11
2022-11-20T12:24:36.833Z,933.15
2022-11-20T12:25:28.572Z,933.15
2022-11-20T12:26:28.555Z,933.19
2022-11-20T12:27:28.541Z,933.16
2022-11-20T12:28:28.527Z,933.20
2022-11-20T12:29:28.567Z,933.16